createdAt,value
2023-05-21T00:00:44.205Z,94807.00
2023-05-21T00:01:44.254Z,94805.00
2023-05-21T00:02:44.315Z,94807.00
2023-05-21T00:03:44.385Z,94807.00
2023-05-21T00:04:44.254Z,94807.00
2023-05-21T00:05:44.275Z,94807.00
2023-05-21T00:06:44.264Z,94807.00
2023-05-21T00:07:44.222Z,94807.00
2023-05-21T00:08:44.249Z,94805.00
2023-05-21T00:09:44.239Z,94807.00
2023-05-21T00:10:44.240Z,94809.00
2023-05-21T00:11:44.258Z,94805.00
2023-05-21T00:12:44.264Z,94805.00
2023-05-21T00:13:44.226Z,94803.00
2023-05-21T00:14:44.275Z,94803.00
2023-05-21T00:15:44.255Z,94799.00
2023-05-21T00:16:44.329Z,94803.00
2023-05-21T00:17:44.288Z,94801.00
2023-05-21T00:18:44.285Z,94807.00
2023-05-21T00:19:44.235Z,94803.00
2023-05-21T00:20:44.231Z,94807.00
2023-05-21T00:21:44.221Z,94801.00
2023-05-21T00:22:44.285Z,94803.00
2023-05-21T00:23:44.250Z,94805.00
2023-05-21T00:24:44.217Z,94803.00
2023-05-21T00:25:44.216Z,94803.00
2023-05-21T00:26:44.265Z,94803.00
2023-05-21T00:27:44.251Z,94799.00
2023-05-21T00:28:44.215Z,94801.00
2023-05-21T00:29:44.440Z,94799.00
2023-05-21T00:30:44.200Z,94801.00
2023-05-21T00:31:44.355Z,94805.00
2023-05-21T00:32:44.308Z,94805.00
2023-05-21T00:33:44.242Z,94803.00
2023-05-21T00:34:44.229Z,94809.00
2023-05-21T00:35:44.240Z,94805.00
2023-05-21T00:36:44.207Z,94805.00
2023-05-21T00:37:44.189Z,94805.00
2023-05-21T00:38:44.282Z,94803.00
2023-05-21T00:39:44.225Z,94805.00
2023-05-21T00:40:44.182Z,94805.00
2023-05-21T00:41:44.199Z,94801.00
2023-05-21T00:42:44.229Z,94803.00
2023-05-21T00:43:44.171Z,94801.00
2023-05-21T00:44:44.170Z,94799.00
2023-05-21T00:45:44.151Z,94799.00
2023-05-21T00:46:44.170Z,94799.00
2023-05-21T00:47:44.204Z,94799.00
2023-05-21T00:48:44.168Z,94801.00
2023-05-21T00:49:44.133Z,94807.00
2023-05-21T00:50:44.160Z,94805.00
2023-05-21T00:51:44.153Z,94805.00
2023-05-21T00:52:44.126Z,94803.00
2023-05-21T00:53:44.135Z,94801.00
2023-05-21T00:54:44.155Z,94803.00
2023-05-21T00:55:44.153Z,94801.00
2023-05-21T00:56:44.130Z,94799.00
2023-05-21T00:57:44.128Z,94803.00
2023-05-21T00:58:44.143Z,94801.00
2023-05-21T00:59:44.141Z,94801.00
2023-05-21T01:00:44.134Z,94803.00
2023-05-21T01:01:44.134Z,94807.00
2023-05-21T01:02:44.242Z,94805.00
2023-05-21T01:03:44.105Z,94805.00
2023-05-21T01:04:44.099Z,94805.00
2023-05-21T01:05:44.103Z,94803.00
2023-05-21T01:06:44.081Z,94801.00
2023-05-21T01:07:44.125Z,94799.00
2023-05-21T01:08:44.141Z,94801.00
2023-05-21T01:09:44.147Z,94797.00
2023-05-21T01:10:44.148Z,94801.00
2023-05-21T01:11:44.119Z,94801.00
2023-05-21T01:12:44.176Z,94799.00
2023-05-21T01:13:44.127Z,94799.00
2023-05-21T01:14:44.141Z,94797.00
2023-05-21T01:15:44.134Z,94799.00
2023-05-21T01:16:44.195Z,94799.00
2023-05-21T01:17:44.106Z,94797.00
2023-05-21T01:18:44.212Z,94793.00
2023-05-21T01:19:44.156Z,94793.00
2023-05-21T01:20:44.137Z,94791.00
2023-05-21T01:21:44.134Z,94793.00
2023-05-21T01:22:44.090Z,94791.00
2023-05-21T01:23:44.116Z,94793.00
2023-05-21T01:24:44.107Z,94793.00
2023-05-21T01:25:44.127Z,94791.00
2023-05-21T01:26:44.161Z,94795.00
2023-05-21T01:27:44.118Z,94791.00
2023-05-21T01:28:44.146Z,94795.00
2023-05-21T01:29:44.119Z,94793.00
2023-05-21T01:30:44.149Z,94793.00
2023-05-21T01:31:44.138Z,94801.00
2023-05-21T01:32:44.222Z,94799.00
2023-05-21T01:33:44.231Z,94797.00
2023-05-21T01:34:44.216Z,94795.00
2023-05-21T01:35:44.195Z,94791.00
2023-05-21T01:36:44.226Z,94791.00
2023-05-21T01:37:44.232Z,94791.00
2023-05-21T01:38:44.265Z,94793.00
2023-05-21T01:39:44.253Z,94791.00
2023-05-21T01:40:44.284Z,94791.00
2023-05-21T01:41:44.309Z,94793.00
2023-05-21T01:42:44.345Z,94791.00
2023-05-21T01:43:44.325Z,94789.00
2023-05-21T01:44:44.325Z,94791.00
2023-05-21T01:45:44.308Z,94787.00
2023-05-21T01:46:44.457Z,94789.00
2023-05-21T01:47:44.349Z,94785.00
2023-05-21T01:48:44.321Z,94783.00
2023-05-21T01:49:44.315Z,94783.00
2023-05-21T01:50:44.316Z,94781.00
2023-05-21T01:51:44.336Z,94781.00
2023-05-21T01:52:44.301Z,94781.00
2023-05-21T01:53:44.305Z,94781.00
2023-05-21T01:54:44.296Z,94779.00
2023-05-21T01:55:44.315Z,94777.00
2023-05-21T01:56:44.317Z,94783.00
2023-05-21T01:57:44.291Z,94781.00
2023-05-21T01:58:44.286Z,94779.00
2023-05-21T01:59:44.338Z,94781.00
2023-05-21T02:00:44.299Z,94781.00
2023-05-21T02:01:44.354Z,94783.00
2023-05-21T02:02:44.403Z,94785.00
2023-05-21T02:03:44.364Z,94785.00
2023-05-21T02:04:44.303Z,94789.00
2023-05-21T02:05:44.295Z,94787.00
2023-05-21T02:06:44.316Z,94785.00
2023-05-21T02:07:44.295Z,94785.00
2023-05-21T02:08:44.290Z,94785.00
2023-05-21T02:09:44.315Z,94789.00
2023-05-21T02:10:44.287Z,94791.00
2023-05-21T02:11:44.300Z,94789.00
2023-05-21T02:12:44.294Z,94791.00
2023-05-21T02:13:44.276Z,94793.00
2023-05-21T02:14:44.296Z,94795.00
2023-05-21T02:15:44.281Z,94795.00
2023-05-21T02:16:44.338Z,94793.00
2023-05-21T02:17:44.365Z,94791.00
2023-05-21T02:18:44.358Z,94791.00
2023-05-21T02:19:44.304Z,94793.00
2023-05-21T02:20:44.326Z,94793.00
2023-05-21T02:21:44.290Z,94793.00
2023-05-21T02:22:44.332Z,94795.00
2023-05-21T02:23:45.241Z,94795.00
2023-05-21T02:24:44.340Z,94797.00
2023-05-21T02:25:44.359Z,94797.00
2023-05-21T02:26:44.355Z,94795.00
2023-05-21T02:27:44.356Z,94793.00
2023-05-21T02:28:44.339Z,94793.00
2023-05-21T02:29:44.356Z,94795.00
2023-05-21T02:30:44.354Z,94791.00
2023-05-21T02:31:44.372Z,94791.00
2023-05-21T02:32:44.388Z,94791.00
2023-05-21T02:33:44.492Z,94789.00
2023-05-21T02:34:44.349Z,94787.00
2023-05-21T02:35:44.382Z,94787.00
2023-05-21T02:36:44.377Z,94785.00
2023-05-21T02:37:44.607Z,94785.00
2023-05-21T02:38:44.381Z,94781.00
2023-05-21T02:39:44.397Z,94781.00
2023-05-21T02:40:44.378Z,94783.00
2023-05-21T02:41:44.395Z,94781.00
2023-05-21T02:42:44.391Z,94779.00
2023-05-21T02:43:44.377Z,94777.00
2023-05-21T02:44:44.361Z,94775.00
2023-05-21T02:45:44.421Z,94775.00
2023-05-21T02:46:44.410Z,94775.00
2023-05-21T02:47:44.382Z,94775.00
2023-05-21T02:48:44.383Z,94773.00
2023-05-21T02:49:44.399Z,94773.00
2023-05-21T02:50:44.405Z,94771.00
2023-05-21T02:51:44.412Z,94771.00
2023-05-21T02:52:44.417Z,94766.00
2023-05-21T02:53:44.441Z,94767.00
2023-05-21T02:54:44.450Z,94773.00
2023-05-21T02:55:44.480Z,94777.00
2023-05-21T02:56:44.505Z,94773.00
2023-05-21T02:57:44.548Z,94771.00
2023-05-21T02:58:44.532Z,94771.00
2023-05-21T02:59:44.555Z,94771.00
2023-05-21T03:00:44.608Z,94773.00
2023-05-21T03:01:44.643Z,94777.00
2023-05-21T03:02:44.669Z,94777.00
2023-05-21T03:03:44.711Z,94777.00
2023-05-21T03:04:44.703Z,94773.00
2023-05-21T03:05:44.710Z,94775.00
2023-05-21T03:06:44.768Z,94781.00
2023-05-21T03:07:44.752Z,94783.00
2023-05-21T03:08:44.784Z,94781.00
2023-05-21T03:09:44.851Z,94785.00
2023-05-21T03:10:44.848Z,94783.00
2023-05-21T03:11:44.830Z,94783.00
2023-05-21T03:12:45.733Z,94785.00
2023-05-21T03:13:44.935Z,94785.00
2023-05-21T03:14:44.925Z,94785.00
2023-05-21T03:15:44.911Z,94781.00
2023-05-21T03:16:44.947Z,94783.00
2023-05-21T03:17:44.971Z,94789.00
2023-05-21T03:18:44.950Z,94789.00
2023-05-21T03:19:44.960Z,94793.00
2023-05-21T03:20:44.928Z,94791.00
2023-05-21T03:21:45.023Z,94787.00
2023-05-21T03:22:44.939Z,94789.00
2023-05-21T03:23:44.959Z,94793.00
2023-05-21T03:24:44.955Z,94793.00
2023-05-21T03:25:44.917Z,94793.00
2023-05-21T03:26:44.919Z,94789.00
2023-05-21T03:27:44.967Z,94789.00
2023-05-21T03:28:44.962Z,94787.00
2023-05-21T03:29:44.983Z,94789.00
2023-05-21T03:30:44.984Z,94791.00
2023-05-21T03:31:44.977Z,94791.00
2023-05-21T03:32:45.101Z,94789.00
2023-05-21T03:33:44.994Z,94791.00
2023-05-21T03:34:44.977Z,94787.00
2023-05-21T03:35:45.014Z,94789.00
2023-05-21T03:36:44.989Z,94791.00
2023-05-21T03:37:44.998Z,94791.00
2023-05-21T03:38:45.016Z,94791.00
2023-05-21T03:39:45.017Z,94797.00
2023-05-21T03:40:45.060Z,94793.00
2023-05-21T03:41:45.046Z,94799.00
2023-05-21T03:42:45.062Z,94799.00
2023-05-21T03:43:45.069Z,94803.00
2023-05-21T03:44:45.084Z,94799.00
2023-05-21T03:45:45.142Z,94801.00
2023-05-21T03:46:45.102Z,94803.00
2023-05-21T03:47:45.147Z,94799.00
2023-05-21T03:48:45.091Z,94797.00
2023-05-21T03:49:45.082Z,94795.00
2023-05-21T03:50:45.125Z,94797.00
2023-05-21T03:51:45.108Z,94795.00
2023-05-21T03:52:45.109Z,94795.00
2023-05-21T03:53:45.155Z,94795.00
2023-05-21T03:54:45.142Z,94797.00
2023-05-21T03:55:45.157Z,94795.00
2023-05-21T03:56:45.120Z,94795.00
2023-05-21T03:57:45.133Z,94799.00
2023-05-21T03:58:45.147Z,94799.00
2023-05-21T03:59:45.148Z,94801.00
2023-05-21T04:00:45.150Z,94799.00
2023-05-21T04:01:45.139Z,94793.00
2023-05-21T04:02:45.292Z,94793.00
2023-05-21T04:03:45.298Z,94801.00
2023-05-21T04:04:45.169Z,94809.00
2023-05-21T04:05:45.194Z,94809.00
2023-05-21T04:06:45.154Z,94803.00
2023-05-21T04:07:45.144Z,94801.00
2023-05-21T04:08:45.182Z,94807.00
2023-05-21T04:09:45.165Z,94809.00
2023-05-21T04:10:45.211Z,94813.00
2023-05-21T04:11:45.179Z,94809.00
2023-05-21T04:12:45.157Z,94801.00
2023-05-21T04:13:45.211Z,94797.00
2023-05-21T04:14:45.207Z,94805.00
2023-05-21T04:15:45.198Z,94820.00
2023-05-21T04:16:45.224Z,94826.00
2023-05-21T04:17:45.251Z,94828.00
2023-05-21T04:18:45.709Z,94826.00
2023-05-21T04:19:45.222Z,94820.00
2023-05-21T04:20:45.229Z,94814.00
2023-05-21T04:21:45.258Z,94818.00
2023-05-21T04:22:45.251Z,94828.00
2023-05-21T04:23:45.285Z,94834.00
2023-05-21T04:24:45.259Z,94838.00
2023-05-21T04:25:45.285Z,94834.00
2023-05-21T04:26:45.262Z,94834.00
2023-05-21T04:27:45.267Z,94830.00
2023-05-21T04:28:45.254Z,94828.00
2023-05-21T04:29:45.266Z,94830.00
2023-05-21T04:30:45.282Z,94834.00
2023-05-21T04:31:45.318Z,94836.00
2023-05-21T04:32:45.298Z,94838.00
2023-05-21T04:33:45.302Z,94836.00
2023-05-21T04:34:45.298Z,94828.00
2023-05-21T04:35:45.316Z,94826.00
2023-05-21T04:36:45.320Z,94824.00
2023-05-21T04:37:45.259Z,94826.00
2023-05-21T04:38:45.311Z,94824.00
2023-05-21T04:39:45.302Z,94822.00
2023-05-21T04:40:45.266Z,94826.00
2023-05-21T04:41:45.274Z,94826.00
2023-05-21T04:42:45.265Z,94824.00
2023-05-21T04:43:45.281Z,94822.00
2023-05-21T04:44:45.268Z,94818.00
2023-05-21T04:45:45.285Z,94816.00
2023-05-21T04:46:45.302Z,94816.00
2023-05-21T04:47:45.286Z,94818.00
2023-05-21T04:48:45.261Z,94818.00
2023-05-21T04:49:45.267Z,94816.00
2023-05-21T04:50:45.268Z,94818.00
2023-05-21T04:51:45.251Z,94822.00
2023-05-21T04:52:45.264Z,94822.00
2023-05-21T04:53:45.223Z,94820.00
2023-05-21T04:54:45.240Z,94818.00
2023-05-21T04:55:45.257Z,94816.00
2023-05-21T04:56:45.217Z,94814.00
2023-05-21T04:57:45.254Z,94813.00
2023-05-21T04:58:45.248Z,94813.00
2023-05-21T04:59:45.238Z,94816.00
2023-05-21T05:00:45.298Z,94818.00
2023-05-21T05:01:45.221Z,94816.00
2023-05-21T05:02:45.278Z,94818.00
2023-05-21T05:03:45.308Z,94816.00
2023-05-21T05:04:45.250Z,94818.00
2023-05-21T05:05:45.269Z,94820.00
2023-05-21T05:06:45.274Z,94822.00
2023-05-21T05:07:45.279Z,94822.00
2023-05-21T05:08:45.293Z,94818.00
2023-05-21T05:09:45.304Z,94814.00
2023-05-21T05:10:45.337Z,94807.00
2023-05-21T05:11:45.335Z,94807.00
2023-05-21T05:12:45.378Z,94811.00
2023-05-21T05:13:45.356Z,94809.00
2023-05-21T05:14:45.393Z,94811.00
2023-05-21T05:15:46.493Z,94809.00
2023-05-21T05:16:45.676Z,94809.00
2023-05-21T05:17:45.746Z,94809.00
2023-05-21T05:18:45.718Z,94809.00
2023-05-21T05:19:45.738Z,94811.00
2023-05-21T05:20:45.730Z,94809.00
2023-05-21T05:21:45.785Z,94805.00
2023-05-21T05:22:45.800Z,94805.00
2023-05-21T05:23:45.828Z,94805.00
2023-05-21T05:24:45.884Z,94807.00
2023-05-21T05:25:45.913Z,94805.00
2023-05-21T05:26:45.940Z,94803.00
2023-05-21T05:27:45.946Z,94803.00
2023-05-21T05:28:45.991Z,94801.00
2023-05-21T05:29:46.045Z,94799.00
2023-05-21T05:30:46.091Z,94803.00
2023-05-21T05:31:46.101Z,94803.00
2023-05-21T05:32:46.183Z,94805.00
2023-05-21T05:33:46.162Z,94803.00
2023-05-21T05:34:46.219Z,94805.00
2023-05-21T05:35:46.260Z,94805.00
2023-05-21T05:36:46.266Z,94803.00
2023-05-21T05:37:46.304Z,94801.00
2023-05-21T05:38:46.324Z,94801.00
2023-05-21T05:39:46.339Z,94801.00
2023-05-21T05:40:46.385Z,94799.00
2023-05-21T05:41:46.437Z,94799.00
2023-05-21T05:42:46.438Z,94797.00
2023-05-21T05:43:46.433Z,94795.00
2023-05-21T05:44:46.502Z,94797.00
2023-05-21T05:45:46.522Z,94797.00
2023-05-21T05:46:46.672Z,94795.00
2023-05-21T05:47:46.607Z,94793.00
2023-05-21T05:48:46.614Z,94793.00
2023-05-21T05:49:46.628Z,94793.00
2023-05-21T05:50:46.631Z,94795.00
2023-05-21T05:51:46.699Z,94797.00
2023-05-21T05:52:46.688Z,94797.00
2023-05-21T05:53:46.712Z,94797.00
2023-05-21T05:54:46.739Z,94795.00
2023-05-21T05:55:46.768Z,94795.00
2023-05-21T05:56:46.772Z,94799.00
2023-05-21T05:57:46.799Z,94799.00
2023-05-21T05:58:46.790Z,94801.00
2023-05-21T05:59:46.817Z,94803.00
2023-05-21T06:00:46.845Z,94803.00
2023-05-21T06:01:46.857Z,94799.00
2023-05-21T06:02:46.969Z,94799.00
2023-05-21T06:03:46.994Z,94799.00
2023-05-21T06:04:46.883Z,94803.00
2023-05-21T06:05:46.981Z,94803.00
2023-05-21T06:06:46.902Z,94803.00
2023-05-21T06:07:46.935Z,94805.00
2023-05-21T06:08:46.928Z,94801.00
2023-05-21T06:09:46.954Z,94801.00
2023-05-21T06:10:46.929Z,94801.00
2023-05-21T06:11:46.950Z,94799.00
2023-05-21T06:12:46.958Z,94801.00
2023-05-21T06:13:46.980Z,94797.00
2023-05-21T06:14:46.998Z,94801.00
2023-05-21T06:15:47.038Z,94799.00
2023-05-21T06:16:47.040Z,94797.00
2023-05-21T06:17:47.138Z,94797.00
2023-05-21T06:18:47.096Z,94797.00
2023-05-21T06:19:47.070Z,94795.00
2023-05-21T06:20:47.117Z,94793.00
2023-05-21T06:21:47.140Z,94795.00
2023-05-21T06:22:47.150Z,94789.00
2023-05-21T06:23:47.188Z,94785.00
2023-05-21T06:24:47.198Z,94785.00
2023-05-21T06:25:47.335Z,94783.00
2023-05-21T06:26:47.283Z,94779.00
2023-05-21T06:27:47.302Z,94779.00
2023-05-21T06:28:47.298Z,94775.00
2023-05-21T06:29:47.342Z,94775.00
2023-05-21T06:30:47.375Z,94777.00
2023-05-21T06:31:47.437Z,94779.00
2023-05-21T06:32:47.439Z,94777.00
2023-05-21T06:33:47.528Z,94779.00
2023-05-21T06:34:47.469Z,94773.00
2023-05-21T06:35:47.510Z,94773.00
2023-05-21T06:36:47.542Z,94775.00
2023-05-21T06:37:47.572Z,94771.00
2023-05-21T06:38:47.605Z,94769.00
2023-05-21T06:39:47.632Z,94771.00
2023-05-21T06:40:47.660Z,94769.00
2023-05-21T06:41:47.683Z,94769.00
2023-05-21T06:42:47.725Z,94769.00
2023-05-21T06:43:47.743Z,94771.00
2023-05-21T06:44:47.748Z,94767.00
2023-05-21T06:45:47.824Z,94769.00
2023-05-21T06:46:47.816Z,94766.00
2023-05-21T06:47:47.909Z,94767.00
2023-05-21T06:48:47.875Z,94769.00
2023-05-21T06:49:47.909Z,94769.00
2023-05-21T06:50:47.969Z,94771.00
2023-05-21T06:51:48.010Z,94775.00
2023-05-21T06:52:48.028Z,94775.00
2023-05-21T06:53:48.105Z,94779.00
2023-05-21T06:54:48.109Z,94777.00
2023-05-21T06:55:48.129Z,94773.00
2023-05-21T06:56:48.172Z,94773.00
2023-05-21T06:57:48.177Z,94775.00
2023-05-21T06:58:48.192Z,94775.00
2023-05-21T06:59:48.256Z,94777.00
2023-05-21T07:00:48.337Z,94775.00
2023-05-21T07:01:48.340Z,94775.00
2023-05-21T07:02:48.539Z,94777.00
2023-05-21T07:03:48.406Z,94773.00
2023-05-21T07:04:48.433Z,94773.00
2023-05-21T07:05:48.437Z,94777.00
2023-05-21T07:06:48.485Z,94773.00
2023-05-21T07:07:48.510Z,94775.00
2023-05-21T07:08:48.569Z,94773.00
2023-05-21T07:09:48.568Z,94771.00
2023-05-21T07:10:48.615Z,94769.00
2023-05-21T07:11:48.641Z,94769.00
2023-05-21T07:12:48.703Z,94769.00
2023-05-21T07:13:48.685Z,94767.00
2023-05-21T07:14:48.696Z,94767.00
2023-05-21T07:15:48.749Z,94769.00
2023-05-21T07:16:48.781Z,94769.00
2023-05-21T07:17:48.802Z,94767.00
2023-05-21T07:18:48.817Z,94767.00
2023-05-21T07:19:48.815Z,94767.00
2023-05-21T07:20:48.833Z,94764.00
2023-05-21T07:21:48.861Z,94764.00
2023-05-21T07:22:48.908Z,94764.00
2023-05-21T07:23:48.905Z,94760.00
2023-05-21T07:24:48.923Z,94756.00
2023-05-21T07:25:48.945Z,94758.00
2023-05-21T07:26:49.040Z,94754.00
2023-05-21T07:27:49.017Z,94754.00
2023-05-21T07:28:49.082Z,94754.00
2023-05-21T07:29:49.078Z,94754.00
2023-05-21T07:30:49.119Z,94750.00
2023-05-21T07:31:49.148Z,94750.00
2023-05-21T07:32:49.171Z,94746.00
2023-05-21T07:33:49.214Z,94750.00
2023-05-21T07:34:49.260Z,94744.00
2023-05-21T07:35:49.294Z,94738.00
2023-05-21T07:36:49.327Z,94738.00
2023-05-21T07:37:49.371Z,94738.00
2023-05-21T07:38:49.408Z,94740.00
2023-05-21T07:39:49.412Z,94742.00
2023-05-21T07:40:49.449Z,94738.00
2023-05-21T07:41:49.487Z,94740.00
2023-05-21T07:42:49.512Z,94736.00
2023-05-21T07:43:49.575Z,94730.00
2023-05-21T07:44:49.596Z,94734.00
2023-05-21T07:45:49.601Z,94728.00
2023-05-21T07:46:49.675Z,94727.00
2023-05-21T07:47:49.732Z,94728.00
2023-05-21T07:48:49.718Z,94732.00
2023-05-21T07:49:49.782Z,94732.00
2023-05-21T07:50:49.820Z,94732.00
2023-05-21T07:51:49.848Z,94736.00
2023-05-21T07:52:49.916Z,94732.00
2023-05-21T07:53:49.907Z,94734.00
2023-05-21T07:54:49.921Z,94732.00
2023-05-21T07:55:49.952Z,94720.00
2023-05-21T07:56:49.962Z,94725.00
2023-05-21T07:57:49.957Z,94720.00
2023-05-21T07:58:49.987Z,94719.00
2023-05-21T07:59:50.032Z,94715.00
2023-05-21T08:00:50.048Z,94715.00
2023-05-21T08:01:50.084Z,94713.00
2023-05-21T08:02:50.168Z,94715.00
2023-05-21T08:03:50.298Z,94717.00
2023-05-21T08:04:50.162Z,94715.00
2023-05-21T08:05:50.154Z,94715.00
2023-05-21T08:06:50.170Z,94717.00
2023-05-21T08:07:50.164Z,94717.00
2023-05-21T08:08:50.182Z,94713.00
2023-05-21T08:09:50.206Z,94713.00
2023-05-21T08:10:50.182Z,94715.00
2023-05-21T08:11:50.243Z,94713.00
2023-05-21T08:12:50.178Z,94711.00
2023-05-21T08:13:50.197Z,94711.00
2023-05-21T08:14:50.226Z,94711.00
2023-05-21T08:15:52.834Z,94715.00
2023-05-21T08:16:50.246Z,94715.00
2023-05-21T08:17:50.204Z,94715.00
2023-05-21T08:18:50.209Z,94713.00
2023-05-21T08:19:50.168Z,94711.00
2023-05-21T08:20:50.170Z,94707.00
2023-05-21T08:21:52.749Z,94709.00
2023-05-21T08:22:50.157Z,94709.00
2023-05-21T08:23:50.145Z,94709.00
2023-05-21T08:24:50.121Z,94709.00
2023-05-21T08:25:50.153Z,94709.00
2023-05-21T08:26:50.140Z,94709.00
2023-05-21T08:27:52.323Z,94707.00
2023-05-21T08:28:50.094Z,94703.00
2023-05-21T08:29:50.172Z,94701.00
2023-05-21T08:30:50.243Z,94701.00
2023-05-21T08:31:50.359Z,94699.00
2023-05-21T08:32:50.422Z,94691.00
2023-05-21T08:33:50.387Z,94689.00
2023-05-21T08:34:50.430Z,94685.00
2023-05-21T08:35:50.447Z,94687.00
2023-05-21T08:36:50.423Z,94687.00
2023-05-21T08:37:50.480Z,94687.00
2023-05-21T08:38:50.507Z,94691.00
2023-05-21T08:39:50.544Z,94689.00
2023-05-21T08:40:50.583Z,94689.00
2023-05-21T08:41:50.638Z,94687.00
2023-05-21T08:42:50.713Z,94689.00
2023-05-21T08:43:51.226Z,94689.00
2023-05-21T08:44:50.823Z,94687.00
2023-05-21T08:45:50.961Z,94683.00
2023-05-21T08:46:50.991Z,94681.00
2023-05-21T08:47:51.121Z,94683.00
2023-05-21T08:48:51.101Z,94683.00
2023-05-21T08:49:51.164Z,94683.00
2023-05-21T08:50:51.244Z,94674.00
2023-05-21T08:51:51.302Z,94681.00
2023-05-21T08:52:51.338Z,94674.00
2023-05-21T08:53:51.412Z,94672.00
2023-05-21T08:54:51.496Z,94670.00
2023-05-21T08:55:51.765Z,94670.00
2023-05-21T08:56:51.607Z,94670.00
2023-05-21T08:57:51.633Z,94668.00
2023-05-21T08:58:51.701Z,94668.00
2023-05-21T08:59:51.808Z,94672.00
2023-05-21T09:00:51.938Z,94670.00
2023-05-21T09:01:52.048Z,94672.00
2023-05-21T09:02:52.050Z,94666.00
2023-05-21T09:03:52.126Z,94668.00
2023-05-21T09:04:52.084Z,94666.00
2023-05-21T09:05:52.165Z,94664.00
2023-05-21T09:06:52.203Z,94664.00
2023-05-21T09:07:52.650Z,94662.00
2023-05-21T09:08:52.284Z,94666.00
2023-05-21T09:09:52.351Z,94660.00
2023-05-21T09:10:52.433Z,94664.00
2023-05-21T09:11:52.480Z,94664.00
2023-05-21T09:12:52.510Z,94662.00
2023-05-21T09:13:52.563Z,94668.00
2023-05-21T09:14:52.613Z,94668.00
2023-05-21T09:15:52.700Z,94666.00
2023-05-21T09:16:52.834Z,94664.00
2023-05-21T09:17:52.828Z,94666.00
2023-05-21T09:18:52.825Z,94666.00
2023-05-21T09:19:52.913Z,94666.00
2023-05-21T09:20:52.965Z,94670.00
2023-05-21T09:21:53.014Z,94672.00
2023-05-21T09:22:53.048Z,94670.00
2023-05-21T09:23:53.108Z,94674.00
2023-05-21T09:24:53.182Z,94674.00
2023-05-21T09:25:53.189Z,94672.00
2023-05-21T09:26:53.327Z,94672.00
2023-05-21T09:27:53.300Z,94670.00
2023-05-21T09:28:53.342Z,94670.00
2023-05-21T09:29:53.382Z,94674.00
2023-05-21T09:30:53.480Z,94674.00
2023-05-21T09:31:53.583Z,94670.00
2023-05-21T09:32:53.551Z,94670.00
2023-05-21T09:33:53.587Z,94672.00
2023-05-21T09:34:53.586Z,94683.00
2023-05-21T09:35:53.626Z,94681.00
2023-05-21T09:36:53.697Z,94685.00
2023-05-21T09:37:53.738Z,94681.00
2023-05-21T09:38:53.782Z,94681.00
2023-05-21T09:39:53.802Z,94691.00
2023-05-21T09:40:53.858Z,94691.00
2023-05-21T09:41:53.875Z,94685.00
2023-05-21T09:42:53.931Z,94687.00
2023-05-21T09:43:53.963Z,94693.00
2023-05-21T09:44:53.980Z,94697.00
2023-05-21T09:45:54.146Z,94695.00
2023-05-21T09:46:54.184Z,94695.00
2023-05-21T09:47:54.123Z,94691.00
2023-05-21T09:48:54.117Z,94691.00
2023-05-21T09:49:54.185Z,94687.00
2023-05-21T09:50:54.213Z,94687.00
2023-05-21T09:51:54.297Z,94683.00
2023-05-21T09:52:54.313Z,94685.00
2023-05-21T09:53:54.317Z,94672.00
2023-05-21T09:54:54.352Z,94683.00
2023-05-21T09:55:54.396Z,94683.00
2023-05-21T09:56:54.441Z,94685.00
2023-05-21T09:57:54.462Z,94683.00
2023-05-21T09:58:54.618Z,94689.00
2023-05-21T09:59:54.531Z,94687.00
2023-05-21T10:00:54.580Z,94681.00
2023-05-21T10:01:54.671Z,94691.00
2023-05-21T10:02:54.701Z,94687.00
2023-05-21T10:03:54.707Z,94687.00
2023-05-21T10:04:54.809Z,94691.00
2023-05-21T10:05:54.744Z,94685.00
2023-05-21T10:06:54.751Z,94683.00
2023-05-21T10:07:54.783Z,94689.00
2023-05-21T10:08:54.839Z,94685.00
2023-05-21T10:09:54.846Z,94683.00
2023-05-21T10:10:54.908Z,94685.00
2023-05-21T10:11:54.917Z,94687.00
2023-05-21T10:12:54.993Z,94687.00
2023-05-21T10:13:55.029Z,94683.00
2023-05-21T10:14:55.025Z,94674.00
2023-05-21T10:15:55.153Z,94674.00
2023-05-21T10:16:55.124Z,94670.00
2023-05-21T10:17:55.186Z,94674.00
2023-05-21T10:18:55.199Z,94668.00
2023-05-21T10:19:55.202Z,94681.00
2023-05-21T10:20:55.240Z,94691.00
2023-05-21T10:21:55.288Z,94687.00
2023-05-21T10:22:55.267Z,94681.00
2023-05-21T10:23:55.331Z,94672.00
2023-05-21T10:24:55.352Z,94666.00
2023-05-21T10:25:55.383Z,94662.00
2023-05-21T10:26:55.420Z,94664.00
2023-05-21T10:27:55.455Z,94668.00
2023-05-21T10:28:55.507Z,94668.00
2023-05-21T10:29:55.511Z,94664.00
2023-05-21T10:30:55.549Z,94664.00
2023-05-21T10:31:55.610Z,94666.00
2023-05-21T10:32:55.656Z,94664.00
2023-05-21T10:33:55.634Z,94660.00
2023-05-21T10:34:55.654Z,94656.00
2023-05-21T10:35:55.728Z,94656.00
2023-05-21T10:36:55.764Z,94650.00
2023-05-21T10:37:55.767Z,94652.00
2023-05-21T10:38:55.816Z,94644.00
2023-05-21T10:39:55.836Z,94650.00
2023-05-21T10:40:55.838Z,94648.00
2023-05-21T10:41:58.402Z,94642.00
2023-05-21T10:42:55.866Z,94644.00
2023-05-21T10:43:55.894Z,94646.00
2023-05-21T10:44:55.878Z,94646.00
2023-05-21T10:45:55.941Z,94642.00
2023-05-21T10:46:55.850Z,94646.00
2023-05-21T10:47:55.935Z,94646.00
2023-05-21T10:48:55.828Z,94642.00
2023-05-21T10:49:55.837Z,94638.00
2023-05-21T10:50:55.842Z,94638.00
2023-05-21T10:51:55.814Z,94632.00
2023-05-21T10:52:55.819Z,94638.00
2023-05-21T10:53:55.865Z,94638.00
2023-05-21T10:54:55.821Z,94636.00
2023-05-21T10:55:55.814Z,94636.00
2023-05-21T10:56:55.773Z,94636.00
2023-05-21T10:57:55.794Z,94636.00
2023-05-21T10:58:55.781Z,94636.00
2023-05-21T10:59:55.787Z,94634.00
2023-05-21T11:00:55.869Z,94632.00
2023-05-21T11:01:55.768Z,94632.00
2023-05-21T11:02:55.801Z,94634.00
2023-05-21T11:03:55.813Z,94630.00
2023-05-21T11:04:55.746Z,94630.00
2023-05-21T11:05:55.755Z,94627.00
2023-05-21T11:06:55.711Z,94628.00
2023-05-21T11:07:55.705Z,94627.00
2023-05-21T11:08:56.055Z,94628.00
2023-05-21T11:09:55.703Z,94632.00
2023-05-21T11:10:55.698Z,94627.00
2023-05-21T11:11:55.676Z,94628.00
2023-05-21T11:12:55.705Z,94630.00
2023-05-21T11:13:55.684Z,94627.00
2023-05-21T11:14:55.639Z,94628.00
2023-05-21T11:15:55.670Z,94623.00
2023-05-21T11:16:55.723Z,94628.00
2023-05-21T11:17:55.640Z,94630.00
2023-05-21T11:18:55.718Z,94632.00
2023-05-21T11:19:55.652Z,94628.00
2023-05-21T11:20:55.634Z,94627.00
2023-05-21T11:21:55.619Z,94632.00
2023-05-21T11:22:55.600Z,94628.00
2023-05-21T11:23:55.573Z,94632.00
2023-05-21T11:24:55.600Z,94636.00
2023-05-21T11:25:55.571Z,94627.00
2023-05-21T11:26:55.561Z,94628.00
2023-05-21T11:27:55.590Z,94630.00
2023-05-21T11:28:55.561Z,94630.00
2023-05-21T11:29:55.558Z,94632.00
2023-05-21T11:30:55.576Z,94630.00
2023-05-21T11:31:55.541Z,94628.00
2023-05-21T11:32:55.575Z,94625.00
2023-05-21T11:33:55.511Z,94630.00
2023-05-21T11:34:55.513Z,94627.00
2023-05-21T11:35:55.512Z,94630.00
2023-05-21T11:36:55.526Z,94627.00
2023-05-21T11:37:55.475Z,94628.00
2023-05-21T11:38:55.477Z,94625.00
2023-05-21T11:39:55.475Z,94630.00
2023-05-21T11:40:55.678Z,94623.00
2023-05-21T11:41:55.468Z,94628.00
2023-05-21T11:42:55.446Z,94625.00
2023-05-21T11:43:55.464Z,94619.00
2023-05-21T11:44:55.437Z,94625.00